Time;durP1;ratioP1;P1;durP2;ratioP2;P2;SDS_P1;SDS_P2;PMS_P1;PMS_P2;Temp;Humidity;BMP_temperature;BMP_pressure;BME280_temperature;BME280_humidity;BME280_pressure;Samples;Min_cycle;Max_cycle;Signal;HPM_P1;HPM_P2
2023/07/09 00:00:16;;;;;;;4.73;4.33;;;;;;;23.96;43.96;101688.34;4991621;28;96951;-48
2023/07/09 00:02:41;;;;;;;4.37;4.07;;;;;;;23.96;43.92;101685.53;4987762;28;97213;-49
2023/07/09 00:05:12;;;;;;;5.13;4.30;;;;;;;23.95;43.82;101687.56;4989872;28;97124;-51
2023/07/09 00:07:37;;;;;;;4.93;4.00;;;;;;;23.94;43.56;101693.78;4990814;28;96689;-47
2023/07/09 00:10:03;;;;;;;4.37;3.50;;;;;;;23.89;43.64;101694.69;4991335;28;97137;-49
2023/07/09 00:12:28;;;;;;;4.50;4.10;;;;;;;23.89;43.88;101697.50;4989280;28;97862;-48
2023/07/09 00:14:54;;;;;;;4.00;3.70;;;;;;;23.87;43.55;101688.88;4991136;28;97317;-49
2023/07/09 00:17:33;;;;;;;4.00;3.70;;;;;;;23.85;44.41;101690.19;4992781;28;97118;-47
2023/07/09 00:19:59;;;;;;;3.87;3.57;;;;;;;23.85;43.87;101698.63;4993764;28;97353;-48
2023/07/09 00:22:26;;;;;;;4.53;4.17;;;;;;;23.84;43.65;101683.06;4993609;28;96999;-48
2023/07/09 00:24:56;;;;;;;3.67;3.37;;;;;;;23.82;43.66;101680.09;4976914;28;99108;-48
2023/07/09 00:27:25;;;;;;;4.00;3.70;;;;;;;23.82;43.54;101684.94;4994658;28;97291;-48
2023/07/09 00:29:52;;;;;;;4.40;4.00;;;;;;;23.77;43.73;101691.50;4992988;28;97264;-48
2023/07/09 00:32:20;;;;;;;4.23;3.93;;;;;;;23.74;43.96;101698.97;4988773;28;97236;-48
2023/07/09 00:34:48;;;;;;;4.47;3.60;;;;;;;23.68;44.01;101694.84;4989366;28;98617;-51
2023/07/09 00:37:20;;;;;;;4.90;4.50;;;;;;;23.71;44.18;101697.31;4992986;28;97265;-49
2023/07/09 00:39:48;;;;;;;4.20;3.80;;;;;;;23.68;44.04;101692.78;4980073;28;97060;-50
2023/07/09 00:42:17;;;;;;;4.17;3.87;;;;;;;23.67;43.71;101690.56;4992366;28;97518;-49
2023/07/09 00:44:45;;;;;;;4.13;3.83;;;;;;;23.60;43.89;101686.41;4979072;28;98425;-48
2023/07/09 00:47:28;;;;;;;4.90;4.40;;;;;;;23.53;44.41;101689.97;4990224;28;96786;-48
2023/07/09 00:50:09;;;;;;;3.93;3.63;;;;;;;23.48;44.52;101690.16;4990806;28;96836;-50
2023/07/09 00:52:53;;;;;;;8.33;3.53;;;;;;;23.43;44.61;101686.19;4991355;28;97771;-50
2023/07/09 00:55:24;;;;;;;4.67;3.73;;;;;;;23.42;44.25;101686.72;4990380;28;97208;-47
2023/07/09 00:57:57;;;;;;;4.70;4.20;;;;;;;23.39;44.17;101685.06;4989913;28;97056;-48
2023/07/09 01:00:27;;;;;;;4.20;3.90;;;;;;;23.38;44.43;101694.78;4994090;28;97028;-48
2023/07/09 01:02:53;;;;;;;5.57;4.07;;;;;;;23.35;44.12;101687.47;4992164;28;98633;-49
2023/07/09 01:05:19;;;;;;;4.70;4.13;;;;;;;23.32;44.19;101691.38;4990460;28;97427;-48
2023/07/09 01:07:45;;;;;;;10.53;5.20;;;;;;;23.27;44.37;101690.22;4990342;28;97240;-48
2023/07/09 01:10:13;;;;;;;4.37;3.97;;;;;;;23.21;44.42;101688.91;4992467;28;97530;-48
2023/07/09 01:12:39;;;;;;;3.70;3.40;;;;;;;23.22;44.56;101691.13;4991590;28;98789;-47
2023/07/09 01:15:07;;;;;;;4.03;3.53;;;;;;;23.20;44.58;101682.53;4991854;28;97504;-48
2023/07/09 01:17:33;;;;;;;4.03;3.67;;;;;;;23.16;44.51;101684.94;4989990;28;97192;-49
2023/07/09 01:19:58;;;;;;;4.10;3.80;;;;;;;23.11;44.54;101683.03;4993751;28;97131;-48
2023/07/09 01:22:24;;;;;;;4.27;3.93;;;;;;;23.09;44.61;101680.03;4992750;28;97326;-49
2023/07/09 01:25:03;;;;;;;3.60;3.30;;;;;;;23.02;45.06;101672.38;4992711;28;97562;-49
2023/07/09 01:27:34;;;;;;;3.80;3.50;;;;;;;23.00;44.43;101678.50;4988307;28;97225;-50
2023/07/09 01:30:01;;;;;;;4.00;3.70;;;;;;;22.96;44.52;101682.97;4989225;28;97239;-49
2023/07/09 01:32:27;;;;;;;3.40;3.20;;;;;;;22.89;44.56;101683.72;4988676;28;97070;-49
2023/07/09 01:34:56;;;;;;;3.90;3.70;;;;;;;22.86;44.71;101684.81;4989903;28;97161;-48
2023/07/09 01:37:25;;;;;;;3.83;3.50;;;;;;;22.81;44.77;101677.31;4989892;28;97125;-48
2023/07/09 01:39:52;;;;;;;4.33;3.70;;;;;;;22.78;44.76;101681.22;4992638;28;97366;-48
2023/07/09 01:42:21;;;;;;;3.57;3.30;;;;;;;22.75;44.81;101683.09;4991171;28;97090;-47
2023/07/09 01:44:47;;;;;;;4.20;3.90;;;;;;;22.74;44.91;101678.00;4990923;28;97207;-48
2023/07/09 01:47:12;;;;;;;3.67;3.10;;;;;;;22.72;44.87;101681.38;4991181;28;96932;-48
2023/07/09 01:49:39;;;;;;;3.10;2.90;;;;;;;22.70;44.88;101674.81;4987622;28;97289;-47
2023/07/09 01:52:08;;;;;;;4.73;4.33;;;;;;;22.66;44.92;101677.22;4990067;28;97392;-49
2023/07/09 01:54:37;;;;;;;3.73;3.43;;;;;;;22.62;44.83;101671.22;4990443;28;97247;-49
2023/07/09 01:57:13;;;;;;;3.33;3.03;;;;;;;22.60;45.34;101673.81;4992933;28;96856;-49
2023/07/09 01:59:41;;;;;;;3.50;3.20;;;;;;;22.51;45.20;101677.09;4989339;28;96979;-50
2023/07/09 02:02:09;;;;;;;6.90;3.70;;;;;;;22.48;45.04;101666.97;4992516;28;98942;-48
2023/07/09 02:04:34;;;;;;;3.37;3.17;;;;;;;22.42;45.25;101674.78;4991511;28;97440;-48
2023/07/09 02:06:59;;;;;;;4.53;3.90;;;;;;;22.34;45.37;101663.53;4992325;28;97775;-48
2023/07/09 02:09:25;;;;;;;3.53;3.23;;;;;;;22.31;45.33;101673.03;4991531;28;103200;-49
2023/07/09 02:11:50;;;;;;;3.73;3.43;;;;;;;22.31;45.31;101664.63;4993169;28;104698;-47
2023/07/09 02:14:15;;;;;;;3.90;3.60;;;;;;;22.29;45.21;101670.81;4992417;28;97147;-50
2023/07/09 02:16:41;;;;;;;3.60;3.40;;;;;;;22.25;45.37;101672.44;4988543;28;97314;-48
2023/07/09 02:19:06;;;;;;;4.90;3.13;;;;;;;22.23;45.38;101675.81;4991888;28;97456;-48
2023/07/09 02:21:31;;;;;;;3.60;3.30;;;;;;;22.20;45.50;101685.31;4990491;28;106876;-49
2023/07/09 02:23:57;;;;;;;3.47;3.20;;;;;;;22.21;45.44;101683.25;4988716;28;104655;-50
2023/07/09 02:26:22;;;;;;;3.40;3.20;;;;;;;22.18;45.54;101684.34;4990371;28;97088;-49
2023/07/09 02:28:47;;;;;;;3.27;3.07;;;;;;;22.12;45.56;101680.94;4989842;28;98042;-47
2023/07/09 02:31:13;;;;;;;3.87;3.57;;;;;;;22.10;45.60;101683.53;4989366;28;98296;-48
2023/07/09 02:33:39;;;;;;;3.40;3.20;;;;;;;22.06;45.79;101685.94;4989698;28;97164;-49
2023/07/09 02:36:05;;;;;;;3.30;3.10;;;;;;;22.03;45.78;101684.22;4992000;28;97142;-47
2023/07/09 02:38:30;;;;;;;4.00;3.50;;;;;;;22.00;45.81;101688.88;4974261;28;97097;-49
2023/07/09 02:40:55;;;;;;;3.40;3.20;;;;;;;21.95;45.87;101689.03;4989648;28;102957;-48
2023/07/09 02:43:21;;;;;;;3.67;3.40;;;;;;;21.91;45.85;101683.75;4990890;28;97128;-48
2023/07/09 02:45:46;;;;;;;3.23;3.00;;;;;;;21.83;45.94;101690.59;4988503;28;97084;-48
2023/07/09 02:48:11;;;;;;;6.50;3.27;;;;;;;21.83;45.96;101682.19;4988828;28;102560;-49
2023/07/09 02:50:37;;;;;;;3.80;3.17;;;;;;;21.80;46.03;101678.38;4988296;28;106982;-49
2023/07/09 02:53:02;;;;;;;3.70;3.40;;;;;;;21.76;46.06;101672.38;4988853;28;104893;-48
2023/07/09 02:55:28;;;;;;;3.30;3.10;;;;;;;21.71;46.03;101670.44;4992454;28;100626;-49
2023/07/09 02:57:53;;;;;;;3.77;3.40;;;;;;;21.69;46.23;101678.66;4991792;28;96976;-48
2023/07/09 03:00:18;;;;;;;3.37;3.17;;;;;;;21.67;46.27;101678.44;4989417;28;97325;-48
2023/07/09 03:02:44;;;;;;;3.57;3.27;;;;;;;21.64;46.27;101677.47;4993338;28;96793;-48
2023/07/09 03:05:10;;;;;;;3.23;3.00;;;;;;;21.62;46.20;101682.16;4992023;28;100866;-48
2023/07/09 03:07:35;;;;;;;3.90;3.60;;;;;;;21.61;46.45;101686.22;4988960;28;97301;-49
2023/07/09 03:10:01;;;;;;;3.67;3.37;;;;;;;21.60;46.50;101684.75;4989112;28;97302;-48
2023/07/09 03:12:26;;;;;;;3.27;3.07;;;;;;;21.60;46.56;101690.34;4989392;28;97207;-49
2023/07/09 03:14:52;;;;;;;5.33;3.10;;;;;;;21.57;46.54;101683.78;4987177;28;97097;-49
2023/07/09 03:17:17;;;;;;;3.57;3.27;;;;;;;21.56;46.66;101685.06;4990410;28;97036;-48
2023/07/09 03:19:43;;;;;;;3.60;3.40;;;;;;;21.56;46.78;101687.88;4990695;28;97363;-47
2023/07/09 03:22:08;;;;;;;3.73;3.43;;;;;;;21.56;46.66;101681.50;4989032;28;97649;-50
2023/07/09 03:24:33;;;;;;;3.50;3.20;;;;;;;21.51;46.83;101690.81;4988117;28;96746;-47
2023/07/09 03:26:59;;;;;;;3.90;3.60;;;;;;;21.47;46.87;101696.00;4990313;28;96968;-49
2023/07/09 03:29:24;;;;;;;3.83;3.53;;;;;;;21.49;47.05;101690.59;4988459;28;97107;-48
2023/07/09 03:31:49;;;;;;;3.70;3.40;;;;;;;21.48;47.04;101691.88;4990007;28;100088;-48
2023/07/09 03:34:15;;;;;;;3.50;3.30;;;;;;;21.47;47.12;101691.13;4988201;28;97041;-49
2023/07/09 03:36:41;;;;;;;3.87;3.57;;;;;;;21.47;47.02;101696.00;4989138;28;98817;-48
2023/07/09 03:39:07;;;;;;;5.40;3.23;;;;;;;21.48;47.24;101692.66;4988690;28;96927;-49
2023/07/09 03:41:33;;;;;;;3.70;3.40;;;;;;;21.47;47.20;101696.72;4989334;28;97197;-47
2023/07/09 03:43:59;;;;;;;4.07;3.30;;;;;;;21.46;47.32;101688.88;4988617;28;98153;-48
2023/07/09 03:46:24;;;;;;;3.17;2.97;;;;;;;21.47;47.39;101696.00;4986601;28;97278;-50
2023/07/09 03:48:50;;;;;;;3.87;3.57;;;;;;;21.47;47.38;101684.78;4979390;28;100193;-49
2023/07/09 03:51:16;;;;;;;4.33;3.33;;;;;;;21.45;47.41;101685.31;4991462;28;97976;-48
2023/07/09 03:53:41;;;;;;;4.00;3.20;;;;;;;21.43;47.40;101684.34;4988641;28;97222;-48
2023/07/09 03:56:07;;;;;;;4.10;3.80;;;;;;;21.43;47.64;101687.16;4985120;28;102827;-50
2023/07/09 03:58:33;;;;;;;4.20;3.90;;;;;;;21.42;47.74;101688.47;4988211;28;97194;-48
2023/07/09 04:00:58;;;;;;;3.30;3.00;;;;;;;21.41;47.76;101695.34;4988766;28;97106;-48
2023/07/09 04:03:24;;;;;;;3.67;3.37;;;;;;;21.44;47.76;101685.88;4990229;28;97304;-49
2023/07/09 04:05:50;;;;;;;3.57;3.27;;;;;;;21.44;47.83;101697.06;4971068;28;97078;-51
2023/07/09 04:08:15;;;;;;;4.90;3.10;;;;;;;21.44;47.85;101692.22;4988586;28;96964;-48
2023/07/09 04:10:40;;;;;;;3.30;3.00;;;;;;;21.46;47.86;101691.69;4990774;28;97159;-50
2023/07/09 04:13:06;;;;;;;3.90;3.60;;;;;;;21.46;47.89;101688.88;4987236;28;105398;-49
2023/07/09 04:15:32;;;;;;;3.90;3.47;;;;;;;21.49;47.98;101699.00;4989027;28;97143;-48
2023/07/09 04:17:57;;;;;;;3.10;2.90;;;;;;;21.53;48.04;101700.19;4985068;28;97974;-49
2023/07/09 04:20:23;;;;;;;3.70;3.07;;;;;;;21.59;48.23;101697.22;4988305;28;97046;-48
2023/07/09 04:22:48;;;;;;;2.90;2.70;;;;;;;21.65;48.32;101707.00;4986721;28;97319;-47
2023/07/09 04:25:14;;;;;;;2.77;2.57;;;;;;;21.72;48.10;101702.03;4986021;28;96849;-48
2023/07/09 04:27:40;;;;;;;3.27;2.97;;;;;;;21.74;47.94;101703.00;4987822;28;97673;-49
2023/07/09 04:30:11;;;;;;;3.53;3.33;;;;;;;21.77;48.12;101699.09;4991699;28;97935;-48
2023/07/09 04:32:37;;;;;;;3.03;2.83;;;;;;;21.77;48.07;101701.16;4989553;28;97160;-48
2023/07/09 04:35:05;;;;;;;3.13;2.93;;;;;;;21.78;48.20;101695.00;4990094;28;97005;-47
2023/07/09 04:37:31;;;;;;;3.10;2.90;;;;;;;21.81;48.30;101702.31;4988854;28;96922;-48
2023/07/09 04:39:56;;;;;;;2.63;2.43;;;;;;;21.86;48.37;101704.28;4986539;28;97765;-49
2023/07/09 04:42:21;;;;;;;2.87;2.77;;;;;;;21.90;48.29;101704.69;4986851;28;106441;-47
2023/07/09 04:44:47;;;;;;;6.20;2.97;;;;;;;21.93;48.16;101705.63;4987495;28;96873;-48
2023/07/09 04:47:12;;;;;;;3.23;3.03;;;;;;;21.96;48.18;101708.09;4986962;28;97209;-47
2023/07/09 04:49:38;;;;;;;2.93;2.73;;;;;;;21.99;48.38;101704.19;4986898;28;97247;-49
2023/07/09 04:52:03;;;;;;;3.50;3.30;;;;;;;22.02;48.37;101702.34;4991554;28;97231;-49
2023/07/09 04:54:30;;;;;;;2.80;2.60;;;;;;;22.02;48.52;101694.69;4988444;28;97934;-48
2023/07/09 04:56:56;;;;;;;3.77;3.47;;;;;;;22.03;48.51;101699.00;4984262;28;98243;-48
2023/07/09 04:59:21;;;;;;;2.93;2.73;;;;;;;22.03;48.41;101693.41;4974660;28;99627;-48
2023/07/09 05:01:46;;;;;;;3.17;2.97;;;;;;;22.13;48.51;101697.22;4989026;28;97173;-50
2023/07/09 05:04:12;;;;;;;3.20;2.97;;;;;;;22.17;48.36;101708.81;4991492;28;97216;-47
2023/07/09 05:06:38;;;;;;;3.10;2.90;;;;;;;22.21;48.33;101708.50;4988661;28;98992;-48
2023/07/09 05:09:03;;;;;;;3.90;3.10;;;;;;;22.28;48.46;101714.16;4990253;28;97012;-49
2023/07/09 05:11:31;;;;;;;4.43;3.53;;;;;;;22.33;48.43;101707.66;4989738;28;97571;-48
2023/07/09 05:13:56;;;;;;;3.33;3.13;;;;;;;22.39;48.27;101711.06;4993153;28;96960;-48
2023/07/09 05:16:21;;;;;;;3.33;3.13;;;;;;;22.43;48.24;101699.50;4990118;28;97845;-49
2023/07/09 05:18:47;;;;;;;5.10;3.20;;;;;;;22.48;48.52;101698.59;4990848;28;96768;-50
2023/07/09 05:21:12;;;;;;;2.67;2.57;;;;;;;22.54;48.45;101695.66;4991684;28;97110;-47
2023/07/09 05:23:38;;;;;;;3.37;3.10;;;;;;;22.60;48.36;101693.47;4991573;28;97185;-48
2023/07/09 05:26:04;;;;;;;2.87;2.67;;;;;;;22.66;48.21;101699.66;4990033;28;107863;-49
2023/07/09 05:28:32;;;;;;;3.13;2.93;;;;;;;22.72;48.14;101698.22;4992903;28;97197;-48
2023/07/09 05:30:58;;;;;;;3.63;3.20;;;;;;;22.78;48.25;101695.25;4990819;28;97034;-49
2023/07/09 05:33:23;;;;;;;3.23;2.93;;;;;;;22.87;48.20;101697.53;4992210;28;97122;-48
2023/07/09 05:35:49;;;;;;;6.63;2.67;;;;;;;22.91;48.49;101695.88;4990137;28;99088;-48
2023/07/09 05:38:15;;;;;;;3.40;3.13;;;;;;;23.01;48.35;101696.13;4991283;28;97514;-47
2023/07/09 05:40:41;;;;;;;3.20;2.97;;;;;;;23.07;48.62;101697.47;4991051;28;97401;-49
2023/07/09 05:43:07;;;;;;;2.80;2.60;;;;;;;23.13;48.36;101702.91;4993296;28;97140;-49
2023/07/09 05:45:32;;;;;;;3.93;3.30;;;;;;;23.18;48.38;101704.78;4992100;28;97740;-48
2023/07/09 05:47:58;;;;;;;4.63;3.30;;;;;;;23.24;48.46;101701.84;4987720;28;97279;-50
2023/07/09 05:50:24;;;;;;;3.20;2.90;;;;;;;23.32;48.17;101696.97;4993567;28;96927;-48
2023/07/09 05:52:50;;;;;;;3.30;3.00;;;;;;;23.38;48.03;101689.91;4994736;28;99933;-48
2023/07/09 05:55:15;;;;;;;3.23;3.03;;;;;;;23.46;48.37;101693.50;4991024;28;97422;-50
2023/07/09 05:57:40;;;;;;;6.20;2.97;;;;;;;23.56;48.00;101700.09;4992242;28;97293;-48
2023/07/09 06:00:08;;;;;;;2.97;2.77;;;;;;;23.67;47.75;101707.41;4990607;28;96954;-50
2023/07/09 06:02:33;;;;;;;3.20;3.00;;;;;;;23.76;47.80;101718.84;4992174;28;97125;-47
2023/07/09 06:04:58;;;;;;;2.93;2.67;;;;;;;23.84;47.64;101713.25;4989121;28;97432;-49
2023/07/09 06:07:24;;;;;;;3.50;3.20;;;;;;;23.93;47.37;101723.94;4990138;28;98762;-47
2023/07/09 06:09:49;;;;;;;3.07;2.87;;;;;;;24.04;47.29;101725.63;4989560;28;97115;-49
2023/07/09 06:12:14;;;;;;;3.43;3.00;;;;;;;24.12;47.00;101726.41;4988713;28;96819;-47
2023/07/09 06:14:40;;;;;;;3.70;3.43;;;;;;;24.19;47.03;101720.78;4988201;28;97407;-48
2023/07/09 06:17:06;;;;;;;2.80;2.60;;;;;;;24.27;46.97;101726.41;4990793;28;97355;-48
2023/07/09 06:19:31;;;;;;;2.97;2.77;;;;;;;24.37;46.65;101718.91;4989105;28;97567;-48
2023/07/09 06:21:57;;;;;;;3.33;3.10;;;;;;;24.46;46.84;101723.97;4990751;28;96926;-48
2023/07/09 06:24:23;;;;;;;3.47;3.17;;;;;;;24.52;46.94;101719.66;4992824;28;97239;-48
2023/07/09 06:26:48;;;;;;;3.20;3.00;;;;;;;24.60;46.62;101714.00;4989932;28;98127;-49
2023/07/09 06:29:13;;;;;;;3.40;3.20;;;;;;;24.66;46.42;101720.16;4990423;28;97240;-49
2023/07/09 06:31:40;;;;;;;3.30;3.00;;;;;;;24.73;46.66;101715.84;4991835;28;97270;-48
2023/07/09 06:34:07;;;;;;;4.27;3.87;;;;;;;24.81;45.99;101717.38;4977207;28;98431;-49
2023/07/09 06:36:33;;;;;;;3.60;3.30;;;;;;;24.91;45.88;101720.34;4989231;28;98520;-49
2023/07/09 06:38:58;;;;;;;3.40;3.20;;;;;;;24.98;46.04;101725.19;4989600;28;96974;-50
2023/07/09 06:41:24;;;;;;;3.23;2.93;;;;;;;25.08;45.89;101723.28;4990790;28;97179;-49
2023/07/09 06:43:50;;;;;;;3.77;3.43;;;;;;;25.18;45.29;101715.75;4989123;28;97247;-50
2023/07/09 06:46:18;;;;;;;3.50;3.13;;;;;;;25.30;45.13;101717.56;4990413;28;97230;-47
2023/07/09 06:48:43;;;;;;;8.90;3.63;;;;;;;25.39;45.04;101716.19;4989411;28;96972;-48
2023/07/09 06:51:09;;;;;;;3.70;3.40;;;;;;;25.46;44.70;101717.50;4993153;28;97002;-47
2023/07/09 06:53:34;;;;;;;3.43;3.10;;;;;;;25.54;44.61;101715.38;4990140;28;97147;-49
2023/07/09 06:56:00;;;;;;;4.03;3.63;;;;;;;25.63;45.01;101714.78;4990484;28;97214;-49
2023/07/09 06:58:27;;;;;;;3.43;3.17;;;;;;;25.70;44.83;101711.16;4990582;28;97393;-49
2023/07/09 07:00:54;;;;;;;3.60;3.17;;;;;;;25.78;44.66;101726.69;4991388;28;97121;-48
2023/07/09 07:03:21;;;;;;;3.60;3.30;;;;;;;25.87;44.14;101714.03;4990804;28;97142;-49
2023/07/09 07:05:53;;;;;;;3.30;3.10;;;;;;;25.92;44.25;101718.72;4990754;28;97251;-49
2023/07/09 07:08:20;;;;;;;3.00;2.80;;;;;;;26.04;44.03;101720.50;4989227;28;97267;-48
2023/07/09 07:10:47;;;;;;;4.37;3.00;;;;;;;26.16;43.74;101709.53;4989989;28;97172;-49
2023/07/09 07:13:13;;;;;;;3.33;3.13;;;;;;;26.26;44.04;101713.19;4990319;28;97374;-48
2023/07/09 07:15:38;;;;;;;3.80;3.50;;;;;;;26.34;44.25;101713.13;4990481;28;97170;-48
2023/07/09 07:18:04;;;;;;;4.20;3.80;;;;;;;26.42;44.04;101722.28;4991257;28;96764;-48
2023/07/09 07:20:30;;;;;;;4.00;3.67;;;;;;;26.53;44.10;101707.69;4991156;28;97178;-50
2023/07/09 07:22:56;;;;;;;3.23;3.03;;;;;;;26.61;44.16;101709.09;4989824;28;97520;-49
2023/07/09 07:25:22;;;;;;;3.87;3.57;;;;;;;26.71;43.70;101720.50;4988085;28;98335;-48
2023/07/09 07:27:47;;;;;;;4.20;3.40;;;;;;;26.80;43.38;101705.72;4989091;28;97215;-50
2023/07/09 07:30:13;;;;;;;3.77;3.50;;;;;;;26.92;43.42;101709.53;4990639;28;102415;-49
2023/07/09 07:32:43;;;;;;;6.63;3.80;;;;;;;27.03;42.79;101717.50;4990900;28;96820;-48
2023/07/09 07:35:09;;;;;;;4.17;3.87;;;;;;;27.16;42.85;101716.41;4991106;28;97190;-49
2023/07/09 07:37:34;;;;;;;3.40;3.20;;;;;;;27.29;42.66;101718.88;4988664;28;98113;-49
2023/07/09 07:40:00;;;;;;;3.80;3.50;;;;;;;27.36;42.42;101713.16;4991740;28;96788;-48
2023/07/09 07:42:26;;;;;;;3.53;3.30;;;;;;;27.46;41.99;101710.38;4989200;28;97138;-49
2023/07/09 07:44:52;;;;;;;3.93;3.63;;;;;;;27.56;41.79;101708.38;4990376;28;98293;-50
2023/07/09 07:47:17;;;;;;;3.90;3.50;;;;;;;27.65;41.67;101704.84;4990532;28;96714;-49
2023/07/09 07:49:43;;;;;;;4.70;4.10;;;;;;;27.76;41.63;101712.75;4988210;28;96994;-48
2023/07/09 07:52:08;;;;;;;3.50;3.20;;;;;;;27.87;41.49;101708.66;4985670;28;97903;-48
2023/07/09 07:54:34;;;;;;;4.10;3.70;;;;;;;27.96;41.16;101707.91;4989543;28;99761;-49
2023/07/09 07:56:59;;;;;;;4.37;3.50;;;;;;;28.06;41.09;101712.31;4988314;28;97247;-48
2023/07/09 07:59:25;;;;;;;3.90;3.60;;;;;;;28.19;40.96;101714.00;4987702;28;97728;-49
2023/07/09 08:01:50;;;;;;;4.07;3.77;;;;;;;28.30;41.22;101715.50;4987748;28;96968;-49
2023/07/09 08:04:16;;;;;;;4.03;3.60;;;;;;;28.40;41.13;101710.59;4988216;28;100479;-49
2023/07/09 08:06:41;;;;;;;3.70;3.37;;;;;;;28.49;41.02;101709.88;4990233;28;97078;-50
2023/07/09 08:09:07;;;;;;;4.10;3.30;;;;;;;28.58;40.45;101706.34;4987458;28;97068;-48
2023/07/09 08:11:32;;;;;;;4.30;3.97;;;;;;;28.68;40.53;101709.94;4988927;28;97520;-48
2023/07/09 08:13:58;;;;;;;5.90;3.43;;;;;;;28.80;40.15;101705.16;4989157;28;97692;-49
2023/07/09 08:16:23;;;;;;;3.97;3.10;;;;;;;28.90;40.50;101708.72;4986985;28;97198;-50
2023/07/09 08:18:51;;;;;;;5.63;3.90;;;;;;;28.98;39.88;101715.00;4977400;28;97068;-48
2023/07/09 08:21:17;;;;;;;3.80;3.50;;;;;;;29.09;39.46;101705.16;4986240;28;97717;-49
2023/07/09 08:23:42;;;;;;;3.60;3.30;;;;;;;29.20;39.50;101713.81;4985408;28;97589;-49
2023/07/09 08:26:08;;;;;;;3.53;3.27;;;;;;;29.30;39.78;101710.94;4991235;28;97096;-48
2023/07/09 08:28:34;;;;;;;3.87;3.53;;;;;;;29.40;39.64;101706.75;4989350;28;97110;-50
2023/07/09 08:30:59;;;;;;;3.70;3.43;;;;;;;29.50;39.62;101701.81;4988327;28;98607;-48
2023/07/09 08:33:25;;;;;;;4.10;3.67;;;;;;;29.63;39.06;101709.81;4990049;28;97499;-49
2023/07/09 08:35:51;;;;;;;4.37;4.00;;;;;;;29.72;38.88;101702.63;4988995;28;97084;-49
2023/07/09 08:38:18;;;;;;;4.30;3.90;;;;;;;29.82;38.95;101692.00;4990280;28;97707;-49
2023/07/09 08:40:54;;;;;;;4.00;3.70;;;;;;;29.92;38.48;101694.81;4975569;28;96825;-49
2023/07/09 08:43:28;;;;;;;5.63;3.80;;;;;;;30.07;38.55;101694.41;4993086;28;97738;-50
2023/07/09 08:46:25;;;;;;;4.33;4.03;;;;;;;30.15;38.45;101690.03;4990745;28;97060;-50
2023/07/09 08:48:56;;;;;;;3.60;3.30;;;;;;;30.26;38.16;101686.53;4973764;28;96795;-50
2023/07/09 08:51:25;;;;;;;3.53;3.33;;;;;;;30.41;37.87;101682.56;4976512;28;98940;-50
2023/07/09 08:53:58;;;;;;;3.30;3.10;;;;;;;30.57;37.15;101685.75;4991721;28;97950;-50
2023/07/09 08:56:26;;;;;;;4.00;3.70;;;;;;;30.67;37.86;101680.72;4989276;28;97047;-50
2023/07/09 08:58:55;;;;;;;4.10;3.80;;;;;;;30.79;37.06;101679.41;4992939;28;97459;-49
2023/07/09 09:01:24;;;;;;;3.93;3.53;;;;;;;30.90;36.63;101681.59;4990156;28;97540;-49
2023/07/09 09:03:55;;;;;;;4.10;3.70;;;;;;;31.04;37.03;101682.50;4992409;28;96612;-51
2023/07/09 09:06:31;;;;;;;3.80;3.50;;;;;;;31.17;35.45;101680.44;4988350;28;97188;-50
2023/07/09 09:09:28;;;;;;;3.60;3.33;;;;;;;31.34;35.59;101682.94;4993024;28;97260;-50
2023/07/09 09:12:08;;;;;;;3.80;3.50;;;;;;;31.53;35.94;101682.75;4959430;28;97739;-51
2023/07/09 09:14:38;;;;;;;3.33;3.07;;;;;;;31.65;35.73;101678.53;4992636;28;97316;-48
2023/07/09 09:17:12;;;;;;;4.30;3.57;;;;;;;31.78;35.09;101682.91;4991515;28;97068;-49
2023/07/09 09:19:54;;;;;;;3.80;3.50;;;;;;;31.94;35.08;101683.13;4990934;28;96760;-49
2023/07/09 09:22:32;;;;;;;4.50;3.77;;;;;;;32.05;34.25;101680.28;4991446;28;97604;-48
2023/07/09 09:25:11;;;;;;;4.00;3.70;;;;;;;32.14;34.96;101682.25;4989227;28;97890;-49
2023/07/09 09:27:38;;;;;;;3.70;3.30;;;;;;;32.28;35.10;101685.97;4990445;28;97017;-50
2023/07/09 09:30:04;;;;;;;3.73;3.43;;;;;;;32.40;35.01;101683.81;4986886;28;97189;-51
2023/07/09 09:32:39;;;;;;;3.80;3.57;;;;;;;32.49;34.22;101685.06;4975364;28;97067;-50
2023/07/09 09:35:17;;;;;;;3.73;3.43;;;;;;;32.59;33.61;101682.06;4993070;28;97302;-49
2023/07/09 09:37:51;;;;;;;3.70;3.40;;;;;;;32.71;32.88;101680.63;4989736;28;97315;-49
2023/07/09 09:40:21;;;;;;;4.30;3.90;;;;;;;32.80;34.26;101676.88;4990843;28;97316;-50
2023/07/09 09:42:47;;;;;;;3.77;3.50;;;;;;;32.90;33.76;101680.28;4987586;28;96786;-49
2023/07/09 09:45:16;;;;;;;4.03;3.73;;;;;;;33.09;nan;101674.25;4988908;28;97114;-52
2023/07/09 09:47:43;;;;;;;6.73;3.37;;;;;;;33.28;33.34;101678.13;4989600;28;96688;-50
2023/07/09 09:50:13;;;;;;;4.00;3.70;;;;;;;33.43;32.49;101672.56;4995114;28;97087;-49
2023/07/09 09:52:39;;;;;;;3.50;3.20;;;;;;;33.58;32.87;101677.69;4992147;28;97367;-50
2023/07/09 09:55:32;;;;;;;3.43;3.17;;;;;;;33.73;32.17;101676.31;4993278;28;97212;-48
2023/07/09 09:57:58;;;;;;;5.07;3.70;;;;;;;33.85;32.29;101680.59;4990189;28;96945;-48
2023/07/09 10:00:26;;;;;;;3.40;3.17;;;;;;;33.94;32.01;101676.75;4985508;28;98916;-51
2023/07/09 10:03:05;;;;;;;4.30;3.93;;;;;;;34.07;31.67;101677.41;4990774;28;97495;-49
2023/07/09 10:05:50;;;;;;;3.40;3.17;;;;;;;34.22;31.37;101685.34;4991907;28;97202;-49
2023/07/09 10:08:29;;;;;;;3.57;3.30;;;;;;;34.35;30.97;101685.31;4981920;28;97243;-48
2023/07/09 10:11:06;;;;;;;3.20;3.00;;;;;;;34.49;31.35;101679.56;4989170;28;96870;-48
2023/07/09 10:13:36;;;;;;;3.70;3.40;;;;;;;34.57;31.53;101677.13;4992852;28;97217;-48
2023/07/09 10:16:19;;;;;;;3.23;2.93;;;;;;;34.68;31.34;101674.16;4989449;28;97374;-48
2023/07/09 10:18:59;;;;;;;3.97;3.67;;;;;;;34.79;30.90;101666.78;4989002;28;97042;-47
2023/07/09 10:21:36;;;;;;;3.53;3.23;;;;;;;34.87;30.51;101667.16;4986860;28;96761;-48
2023/07/09 10:24:14;;;;;;;3.77;3.47;;;;;;;34.95;30.78;101670.41;4992530;28;96917;-48
2023/07/09 10:26:47;;;;;;;4.03;3.30;;;;;;;34.96;29.74;101674.00;4987168;28;99680;-48
2023/07/09 10:29:24;;;;;;;3.50;3.30;;;;;;;34.98;30.42;101657.69;4989649;28;97508;-48
2023/07/09 10:32:04;;;;;;;3.63;3.37;;;;;;;35.08;29.77;101666.06;4989888;28;97445;-48
2023/07/09 10:34:52;;;;;;;3.97;3.50;;;;;;;35.16;29.72;101670.03;4988935;28;97697;-48
2023/07/09 10:37:42;;;;;;;3.77;3.47;;;;;;;35.18;30.02;101673.00;4986834;28;96807;-49
2023/07/09 10:40:12;;;;;;;3.90;3.60;;;;;;;35.15;29.80;101668.53;4991615;28;96939;-48
2023/07/09 10:42:44;;;;;;;3.93;3.50;;;;;;;35.23;29.39;101668.91;4992059;28;96874;-48
2023/07/09 10:45:13;;;;;;;5.07;3.50;;;;;;;35.29;29.67;101657.75;4990164;28;97430;-47
2023/07/09 10:47:44;;;;;;;3.40;3.20;;;;;;;35.31;28.76;101666.44;4979593;28;98626;-47
2023/07/09 10:50:36;;;;;;;3.27;3.07;;;;;;;35.31;29.32;101655.00;4988035;28;96817;-48
2023/07/09 10:53:23;;;;;;;3.97;3.40;;;;;;;35.38;27.54;101658.88;4977800;28;97639;-47
2023/07/09 10:55:59;;;;;;;3.83;3.53;;;;;;;35.46;28.71;101658.50;4990948;28;97082;-47
2023/07/09 10:58:40;;;;;;;3.47;3.07;;;;;;;35.58;28.58;101650.50;4989644;28;97063;-48
2023/07/09 11:01:06;;;;;;;3.00;2.70;;;;;;;35.68;29.33;101648.06;4991272;28;97258;-49
2023/07/09 11:03:44;;;;;;;4.37;3.60;;;;;;;35.82;28.17;101652.28;4989181;28;97355;-50
2023/07/09 11:06:21;;;;;;;3.47;3.17;;;;;;;35.90;28.89;101646.91;4989121;28;97469;-48
2023/07/09 11:08:51;;;;;;;3.43;3.13;;;;;;;35.99;28.25;101650.91;4987243;28;97116;-48
2023/07/09 11:11:35;;;;;;;4.37;3.53;;;;;;;36.01;27.19;101650.97;4992965;28;97244;-50
2023/07/09 11:14:05;;;;;;;3.37;3.07;;;;;;;36.06;28.50;101635.44;4979120;28;97155;-47
2023/07/09 11:16:39;;;;;;;3.73;3.43;;;;;;;36.13;27.39;101634.28;4991543;28;97976;-48
2023/07/09 11:19:06;;;;;;;3.03;2.83;;;;;;;36.19;28.42;101643.16;4987692;28;97362;-49
2023/07/09 11:21:32;;;;;;;3.53;3.23;;;;;;;36.29;28.36;101640.72;4982918;28;99272;-49
2023/07/09 11:24:00;;;;;;;3.10;2.90;;;;;;;36.39;27.86;101641.13;4989397;28;96873;-48
2023/07/09 11:26:31;;;;;;;3.83;3.53;;;;;;;36.45;28.04;101637.81;4988488;28;96810;-48
2023/07/09 11:29:17;;;;;;;3.73;3.50;;;;;;;36.52;26.31;101637.38;4987102;28;98396;-49